First Solo

Now, here we have a great Italian student Pilot in Command! Today, Tuesday 6th of August 2019, Nicolo’ flew his first solo landing on EHHV Runway 25 in his PPL(A)-SEP training, right on schedule in the training syllabus. The weather was good: METAR EHAM 061055Z 25014KT 210V290 9999 FEW030 22/15 Q1009 NOSIG=, with a beautiful Dutch sky full of summer clouds. The tie cut procedure was precisely executed by happy Flight Instructor Ad
Nicolo’, congratulations with this major achievement and we wish you all the best with the next steps of your Flight Training.